createdAt,value
2018-09-23T00:00:22.748Z,0
2018-09-23T00:01:24.246Z,0
2018-09-23T00:02:25.626Z,0
2018-09-23T00:03:27.065Z,0
2018-09-23T00:04:28.589Z,0
2018-09-23T00:05:30.089Z,0
2018-09-23T00:06:31.546Z,0
2018-09-23T00:07:32.943Z,0
2018-09-23T00:08:34.454Z,0
2018-09-23T00:09:35.840Z,0
2018-09-23T00:10:37.246Z,0
2018-09-23T00:11:38.618Z,0
2018-09-23T00:12:40.189Z,0
2018-09-23T00:13:41.651Z,0
2018-09-23T00:14:43.116Z,0
2018-09-23T00:15:45.279Z,0
2018-09-23T00:16:46.722Z,0
2018-09-23T00:17:48.246Z,0
2018-09-23T00:18:49.682Z,0
2018-09-23T00:19:51.163Z,0
2018-09-23T00:20:52.524Z,0
2018-09-23T00:21:53.965Z,0
2018-09-23T00:22:55.332Z,0
2018-09-23T00:23:56.745Z,0
2018-09-23T00:24:58.173Z,0
2018-09-23T00:25:59.585Z,0
2018-09-23T00:27:00.979Z,0
2018-09-23T00:28:02.455Z,0
2018-09-23T00:29:03.951Z,0
2018-09-23T00:30:05.336Z,0
2018-09-23T00:31:06.763Z,0
2018-09-23T00:32:08.142Z,0
2018-09-23T00:33:09.535Z,0
2018-09-23T00:34:11.231Z,0
2018-09-23T00:35:12.652Z,0
2018-09-23T00:36:14.101Z,0
2018-09-23T00:37:15.530Z,0
2018-09-23T00:38:16.911Z,0
2018-09-23T00:39:18.289Z,0
2018-09-23T00:40:19.675Z,0
2018-09-23T00:41:21.068Z,0
2018-09-23T00:42:22.448Z,0
2018-09-23T00:43:23.958Z,0
2018-09-23T00:44:25.622Z,0
2018-09-23T00:45:26.824Z,0
2018-09-23T00:46:28.205Z,0
2018-09-23T00:47:29.587Z,0
2018-09-23T00:48:30.973Z,0
2018-09-23T00:49:32.454Z,0
2018-09-23T00:50:33.817Z,0
2018-09-23T00:51:35.360Z,0
2018-09-23T00:52:36.837Z,0
2018-09-23T00:53:38.168Z,0
2018-09-23T00:54:39.543Z,0
2018-09-23T00:55:40.921Z,0
2018-09-23T00:56:42.321Z,0
2018-09-23T00:57:43.796Z,0
2018-09-23T00:58:45.238Z,0
2018-09-23T00:59:46.669Z,0
2018-09-23T01:00:48.072Z,0
2018-09-23T01:01:49.457Z,0
2018-09-23T01:02:51.660Z,0
2018-09-23T01:03:53.058Z,0
2018-09-23T01:04:54.440Z,0
2018-09-23T01:05:55.826Z,0
2018-09-23T01:06:57.192Z,0
2018-09-23T01:07:58.582Z,0
2018-09-23T01:08:59.946Z,0
2018-09-23T01:10:01.322Z,0
2018-09-23T01:11:02.699Z,0
2018-09-23T01:12:04.113Z,0
2018-09-23T01:13:05.512Z,0
2018-09-23T01:14:06.929Z,0
2018-09-23T01:15:08.301Z,0
2018-09-23T01:16:09.670Z,0
2018-09-23T01:17:11.053Z,0
2018-09-23T01:18:12.427Z,0
2018-09-23T01:19:13.806Z,0
2018-09-23T01:20:15.192Z,0
2018-09-23T01:21:16.578Z,0
2018-09-23T01:22:17.946Z,0
2018-09-23T01:23:19.346Z,0
2018-09-23T01:24:20.767Z,0
2018-09-23T01:25:22.679Z,0
2018-09-23T01:26:24.191Z,0
2018-09-23T01:27:25.567Z,0
2018-09-23T01:28:26.950Z,0
2018-09-23T01:29:28.325Z,0
2018-09-23T01:30:29.706Z,0
2018-09-23T01:31:31.083Z,0
2018-09-23T01:32:32.468Z,0
2018-09-23T01:33:33.843Z,0
2018-09-23T01:34:35.217Z,0
2018-09-23T01:35:36.608Z,0
2018-09-23T01:36:38.001Z,0
2018-09-23T01:37:39.379Z,0
2018-09-23T01:38:40.763Z,0
2018-09-23T01:39:42.164Z,0
2018-09-23T01:40:43.544Z,0
2018-09-23T01:41:44.927Z,0
2018-09-23T01:42:46.307Z,0
2018-09-23T01:43:47.685Z,0
2018-09-23T01:44:49.102Z,0
2018-09-23T01:45:51.012Z,0
2018-09-23T01:46:52.403Z,0
2018-09-23T01:47:53.789Z,0
2018-09-23T01:48:55.178Z,0
2018-09-23T01:49:56.561Z,0
2018-09-23T01:50:57.931Z,0
2018-09-23T01:51:59.310Z,0
2018-09-23T01:53:00.683Z,0
2018-09-23T01:54:02.067Z,0
2018-09-23T01:55:03.441Z,0
2018-09-23T01:56:04.880Z,0
2018-09-23T01:57:06.251Z,0
2018-09-23T01:58:07.673Z,0
2018-09-23T01:59:09.049Z,0
2018-09-23T02:00:10.454Z,0
2018-09-23T02:01:11.833Z,0
2018-09-23T02:02:13.239Z,0
2018-09-23T02:03:14.623Z,0
2018-09-23T02:04:16.003Z,0
2018-09-23T02:05:17.391Z,0
2018-09-23T02:06:18.778Z,0
2018-09-23T02:07:20.153Z,0
2018-09-23T02:08:21.539Z,0
2018-09-23T02:09:22.919Z,0
2018-09-23T02:10:24.300Z,0
2018-09-23T02:11:25.688Z,0
2018-09-23T02:12:27.064Z,0
2018-09-23T02:13:28.440Z,0
2018-09-23T02:14:29.845Z,0
2018-09-23T02:15:31.237Z,0
2018-09-23T02:16:32.709Z,0
2018-09-23T02:17:34.097Z,0
2018-09-23T02:18:35.521Z,0
2018-09-23T02:19:36.896Z,0
2018-09-23T02:20:38.277Z,0
2018-09-23T02:21:39.660Z,0
2018-09-23T02:22:41.041Z,0
2018-09-23T02:23:42.444Z,0
2018-09-23T02:24:43.823Z,0
2018-09-23T02:25:45.226Z,0
2018-09-23T02:26:47.096Z,0
2018-09-23T02:27:49.180Z,0
2018-09-23T02:28:50.592Z,0
2018-09-23T02:29:51.999Z,0
2018-09-23T02:30:53.385Z,0
2018-09-23T02:31:54.800Z,0
2018-09-23T02:32:56.218Z,0
2018-09-23T02:33:57.624Z,0
2018-09-23T02:34:59.008Z,0
2018-09-23T02:36:00.399Z,0
2018-09-23T02:37:01.763Z,0
2018-09-23T02:38:03.163Z,0
2018-09-23T02:39:04.554Z,0
2018-09-23T02:40:05.944Z,0
2018-09-23T02:41:07.312Z,0
2018-09-23T02:42:08.709Z,0
2018-09-23T02:43:10.091Z,0
2018-09-23T02:44:11.460Z,0
2018-09-23T02:45:12.852Z,0
2018-09-23T02:46:14.227Z,0
2018-09-23T02:47:15.611Z,0
2018-09-23T02:48:16.988Z,0
2018-09-23T02:49:18.400Z,0
2018-09-23T02:50:19.789Z,0
2018-09-23T02:51:21.182Z,0
2018-09-23T02:52:22.555Z,0
2018-09-23T02:53:23.933Z,0
2018-09-23T02:54:25.306Z,0
2018-09-23T02:55:26.691Z,0
2018-09-23T02:56:28.080Z,0
2018-09-23T02:57:29.469Z,0
2018-09-23T02:58:30.860Z,0
2018-09-23T02:59:32.232Z,0
2018-09-23T03:00:33.625Z,0
2018-09-23T03:01:34.995Z,0
2018-09-23T03:02:36.380Z,0
2018-09-23T03:03:37.750Z,0
2018-09-23T03:04:39.892Z,0
2018-09-23T03:05:41.271Z,0
2018-09-23T03:06:42.654Z,0
2018-09-23T03:07:44.035Z,0
2018-09-23T03:08:45.435Z,0
2018-09-23T03:09:46.824Z,0
2018-09-23T03:10:48.205Z,0
2018-09-23T03:11:49.589Z,0
2018-09-23T03:12:50.963Z,0
2018-09-23T03:13:52.346Z,0
2018-09-23T03:14:53.725Z,0
2018-09-23T03:15:55.124Z,0
2018-09-23T03:16:56.544Z,0
2018-09-23T03:17:57.994Z,0
2018-09-23T03:18:59.368Z,0
2018-09-23T03:20:00.751Z,0
2018-09-23T03:21:02.136Z,0
2018-09-23T03:22:03.528Z,0
2018-09-23T03:23:04.910Z,0
2018-09-23T03:24:06.296Z,0
2018-09-23T03:25:07.674Z,0
2018-09-23T03:26:09.061Z,0
2018-09-23T03:27:10.448Z,0
2018-09-23T03:28:11.822Z,0
2018-09-23T03:29:13.225Z,0
2018-09-23T03:30:14.612Z,0
2018-09-23T03:31:16.004Z,0
2018-09-23T03:32:17.427Z,0
2018-09-23T03:33:18.803Z,0
2018-09-23T03:34:20.181Z,0
2018-09-23T03:35:21.555Z,0
2018-09-23T03:36:22.931Z,0
2018-09-23T03:37:24.327Z,0
2018-09-23T03:38:25.699Z,0
2018-09-23T03:39:27.085Z,0
2018-09-23T03:40:28.457Z,0
2018-09-23T03:41:29.837Z,0
2018-09-23T03:42:31.228Z,0
2018-09-23T03:43:32.597Z,0
2018-09-23T03:44:33.980Z,0
2018-09-23T03:45:35.367Z,0
2018-09-23T03:46:36.738Z,0
2018-09-23T03:47:38.121Z,0
2018-09-23T03:48:39.506Z,0
2018-09-23T03:49:40.891Z,0
2018-09-23T03:50:42.264Z,0
2018-09-23T03:51:43.642Z,0
2018-09-23T03:52:45.012Z,0
2018-09-23T03:53:46.398Z,0
2018-09-23T03:54:47.778Z,0
2018-09-23T03:55:49.156Z,0
2018-09-23T03:56:50.535Z,0
2018-09-23T03:57:51.989Z,0
2018-09-23T03:58:53.354Z,0
2018-09-23T03:59:54.739Z,0
2018-09-23T04:00:56.164Z,0
2018-09-23T04:01:57.534Z,0
2018-09-23T04:02:58.921Z,0
2018-09-23T04:04:00.291Z,0
2018-09-23T04:05:01.675Z,0
2018-09-23T04:06:03.073Z,0
2018-09-23T04:07:04.553Z,0
2018-09-23T04:08:05.950Z,0
2018-09-23T04:09:07.321Z,0
2018-09-23T04:10:08.695Z,0
2018-09-23T04:11:10.101Z,0
2018-09-23T04:12:11.519Z,0
2018-09-23T04:13:12.816Z,0
2018-09-23T04:14:14.212Z,0
2018-09-23T04:15:15.592Z,0
2018-09-23T04:16:16.963Z,0
2018-09-23T04:17:18.350Z,0
2018-09-23T04:18:19.717Z,0
2018-09-23T04:19:21.113Z,0
2018-09-23T04:20:22.522Z,0
2018-09-23T04:21:23.873Z,0
2018-09-23T04:22:25.272Z,0
2018-09-23T04:23:26.647Z,0
2018-09-23T04:24:28.033Z,0
2018-09-23T04:25:29.416Z,0
2018-09-23T04:26:30.789Z,0
2018-09-23T04:27:33.081Z,0
2018-09-23T04:28:34.458Z,0
2018-09-23T04:29:35.832Z,0
2018-09-23T04:30:37.235Z,0
2018-09-23T04:31:38.638Z,0
2018-09-23T04:32:40.036Z,0
2018-09-23T04:33:41.434Z,0
2018-09-23T04:34:42.826Z,0
2018-09-23T04:35:44.244Z,0
2018-09-23T04:36:45.658Z,0
2018-09-23T04:37:46.995Z,0
2018-09-23T04:38:48.370Z,0
2018-09-23T04:39:49.748Z,0
2018-09-23T04:40:51.121Z,0
2018-09-23T04:41:52.516Z,0
2018-09-23T04:42:53.882Z,0
2018-09-23T04:43:55.281Z,0
2018-09-23T04:44:56.676Z,0
2018-09-23T04:45:58.010Z,0
2018-09-23T04:46:59.390Z,0
2018-09-23T04:48:00.779Z,0
2018-09-23T04:49:02.174Z,0
2018-09-23T04:50:03.548Z,0
2018-09-23T04:51:04.927Z,0
2018-09-23T04:52:06.312Z,0
2018-09-23T04:53:07.716Z,0
2018-09-23T04:54:09.110Z,0
2018-09-23T04:55:10.553Z,0
2018-09-23T04:56:11.876Z,0
2018-09-23T04:57:13.287Z,0
2018-09-23T04:58:14.662Z,0
2018-09-23T04:59:16.065Z,0
2018-09-23T05:00:17.441Z,0
2018-09-23T05:01:18.820Z,0
2018-09-23T05:02:20.196Z,0
2018-09-23T05:03:21.590Z,0
2018-09-23T05:04:22.972Z,0
2018-09-23T05:05:24.357Z,0
2018-09-23T05:06:25.741Z,0
2018-09-23T05:07:27.131Z,0
2018-09-23T05:08:28.558Z,0
2018-09-23T05:09:29.915Z,0
2018-09-23T05:10:31.298Z,0
2018-09-23T05:11:32.678Z,0
2018-09-23T05:12:34.045Z,0
2018-09-23T05:13:35.461Z,0
2018-09-23T05:14:36.800Z,0
2018-09-23T05:15:38.177Z,0
2018-09-23T05:16:39.556Z,0
2018-09-23T05:17:40.934Z,0
2018-09-23T05:18:42.318Z,0
2018-09-23T05:19:43.700Z,0
2018-09-23T05:20:45.095Z,0
2018-09-23T05:21:46.480Z,0
2018-09-23T05:22:47.855Z,0
2018-09-23T05:23:49.247Z,0
2018-09-23T05:24:50.614Z,0
2018-09-23T05:25:51.992Z,0
2018-09-23T05:26:53.370Z,0
2018-09-23T05:27:54.742Z,0
2018-09-23T05:28:56.122Z,0
2018-09-23T05:29:57.499Z,0
2018-09-23T05:30:58.924Z,0
2018-09-23T05:32:00.953Z,0
2018-09-23T05:33:02.341Z,0
2018-09-23T05:34:03.723Z,0
2018-09-23T05:35:05.083Z,4
2018-09-23T05:36:06.493Z,4
2018-09-23T05:37:07.860Z,4
2018-09-23T05:38:09.256Z,4
2018-09-23T05:39:10.640Z,4
2018-09-23T05:40:12.018Z,4
2018-09-23T05:41:13.391Z,4
2018-09-23T05:42:14.774Z,4
2018-09-23T05:43:16.184Z,4
2018-09-23T05:44:17.544Z,4
2018-09-23T05:45:18.927Z,4
2018-09-23T05:46:20.311Z,4
2018-09-23T05:47:21.686Z,4
2018-09-23T05:48:23.063Z,4
2018-09-23T05:49:24.451Z,4
2018-09-23T05:50:25.826Z,0
2018-09-23T05:51:27.234Z,4
2018-09-23T05:52:28.601Z,4
2018-09-23T05:53:29.995Z,4
2018-09-23T05:54:31.426Z,0
2018-09-23T05:55:32.803Z,0
2018-09-23T05:56:34.175Z,0
2018-09-23T05:57:35.576Z,0
2018-09-23T05:58:36.960Z,4
2018-09-23T05:59:38.342Z,4
2018-09-23T06:00:39.721Z,4
2018-09-23T06:01:41.115Z,4
2018-09-23T06:02:42.492Z,8
2018-09-23T06:03:43.864Z,4
2018-09-23T06:04:45.242Z,8
2018-09-23T06:05:46.639Z,4
2018-09-23T06:06:48.033Z,8
2018-09-23T06:07:49.401Z,12
2018-09-23T06:08:50.839Z,8
2018-09-23T06:09:52.133Z,12
2018-09-23T06:10:53.516Z,8
2018-09-23T06:11:54.885Z,12
2018-09-23T06:12:56.271Z,8
2018-09-23T06:13:57.647Z,8
2018-09-23T06:14:59.025Z,12
2018-09-23T06:16:00.933Z,12
2018-09-23T06:17:02.321Z,12
2018-09-23T06:18:03.698Z,8
2018-09-23T06:19:05.079Z,12
2018-09-23T06:20:06.451Z,12
2018-09-23T06:21:07.827Z,16
2018-09-23T06:22:09.204Z,16
2018-09-23T06:23:10.609Z,20
2018-09-23T06:24:11.981Z,20
2018-09-23T06:25:13.369Z,20
2018-09-23T06:26:14.754Z,20
2018-09-23T06:27:16.128Z,20
2018-09-23T06:28:17.514Z,16
2018-09-23T06:29:18.891Z,20
2018-09-23T06:30:20.304Z,16
2018-09-23T06:31:21.671Z,20
2018-09-23T06:32:23.046Z,16
2018-09-23T06:33:24.413Z,16
2018-09-23T06:34:25.815Z,20
2018-09-23T06:35:27.202Z,20
2018-09-23T06:36:28.579Z,20
2018-09-23T06:37:29.953Z,20
2018-09-23T06:38:31.394Z,16
2018-09-23T06:39:32.721Z,16
2018-09-23T06:40:34.097Z,16
2018-09-23T06:41:35.479Z,20
2018-09-23T06:42:36.849Z,20
2018-09-23T06:43:38.251Z,24
2018-09-23T06:44:39.623Z,20
2018-09-23T06:45:41.972Z,24
2018-09-23T06:46:43.321Z,24
2018-09-23T06:47:44.703Z,24
2018-09-23T06:48:46.078Z,24
2018-09-23T06:49:47.455Z,24
2018-09-23T06:50:48.845Z,24
2018-09-23T06:51:50.237Z,24
2018-09-23T06:52:51.633Z,24
2018-09-23T06:53:53.015Z,24
2018-09-23T06:54:54.398Z,24
2018-09-23T06:55:55.774Z,24
2018-09-23T06:56:57.201Z,24
2018-09-23T06:57:58.562Z,20
2018-09-23T06:58:59.956Z,20
2018-09-23T07:00:01.328Z,20
2018-09-23T07:01:02.694Z,20
2018-09-23T07:02:04.082Z,20
2018-09-23T07:03:05.455Z,24
2018-09-23T07:04:06.836Z,20
2018-09-23T07:05:08.221Z,20
2018-09-23T07:06:09.610Z,20
2018-09-23T07:07:10.986Z,20
2018-09-23T07:08:12.380Z,20
2018-09-23T07:09:14.707Z,28
2018-09-23T07:10:16.120Z,28
2018-09-23T07:11:17.475Z,28
2018-09-23T07:12:18.879Z,24
2018-09-23T07:13:20.280Z,28
2018-09-23T07:14:22.388Z,28
2018-09-23T07:15:23.822Z,24
2018-09-23T07:16:25.211Z,28
2018-09-23T07:17:26.589Z,32
2018-09-23T07:18:28.005Z,32
2018-09-23T07:19:29.369Z,32
2018-09-23T07:20:30.753Z,32
2018-09-23T07:21:32.131Z,32
2018-09-23T07:22:33.499Z,32
2018-09-23T07:23:34.907Z,32
2018-09-23T07:24:36.265Z,32
2018-09-23T07:25:37.640Z,32
2018-09-23T07:26:39.010Z,32
2018-09-23T07:27:40.403Z,32
2018-09-23T07:28:41.793Z,32
2018-09-23T07:29:43.160Z,32
2018-09-23T07:30:44.536Z,36
2018-09-23T07:31:45.913Z,36
2018-09-23T07:32:47.304Z,36
2018-09-23T07:33:48.705Z,36
2018-09-23T07:34:50.089Z,36
2018-09-23T07:35:51.506Z,40
2018-09-23T07:36:52.956Z,40
2018-09-23T07:37:54.236Z,40
2018-09-23T07:38:55.632Z,44
2018-09-23T07:39:57.072Z,48
2018-09-23T07:40:58.407Z,52
2018-09-23T07:41:59.795Z,52
2018-09-23T07:43:01.185Z,52
2018-09-23T07:44:02.559Z,48
2018-09-23T07:45:03.936Z,48
2018-09-23T07:46:05.333Z,44
2018-09-23T07:47:06.706Z,48
2018-09-23T07:48:08.156Z,52
2018-09-23T07:49:09.419Z,52
2018-09-23T07:50:10.804Z,60
2018-09-23T07:51:12.187Z,64
2018-09-23T07:52:13.591Z,64
2018-09-23T07:53:14.959Z,64
2018-09-23T07:54:16.343Z,76
2018-09-23T07:55:17.732Z,88
2018-09-23T07:56:19.115Z,84
2018-09-23T07:57:20.509Z,80
2018-09-23T07:58:21.880Z,76
2018-09-23T07:59:23.258Z,72
2018-09-23T08:00:24.650Z,68
2018-09-23T08:01:26.593Z,64
2018-09-23T08:02:28.036Z,68
2018-09-23T08:03:29.499Z,72
2018-09-23T08:04:30.752Z,80
2018-09-23T08:05:32.132Z,76
2018-09-23T08:06:33.522Z,68
2018-09-23T08:07:34.908Z,68
2018-09-23T08:08:36.285Z,68
2018-09-23T08:09:37.667Z,68
2018-09-23T08:10:39.039Z,64
2018-09-23T08:11:40.431Z,56
2018-09-23T08:12:41.942Z,52
2018-09-23T08:13:43.305Z,52
2018-09-23T08:14:45.065Z,56
2018-09-23T08:15:45.948Z,60
2018-09-23T08:16:47.357Z,56
2018-09-23T08:17:48.736Z,56
2018-09-23T08:18:50.150Z,52
2018-09-23T08:19:51.631Z,52
2018-09-23T08:20:52.924Z,44
2018-09-23T08:21:54.258Z,36
2018-09-23T08:22:55.647Z,40
2018-09-23T08:23:57.024Z,40
2018-09-23T08:24:58.429Z,36
2018-09-23T08:25:59.802Z,36
2018-09-23T08:27:01.178Z,36
2018-09-23T08:28:02.567Z,40
2018-09-23T08:29:03.945Z,40
2018-09-23T08:30:05.349Z,32
2018-09-23T08:31:06.735Z,36
2018-09-23T08:32:08.121Z,36
2018-09-23T08:33:09.502Z,32
2018-09-23T08:34:10.899Z,32
2018-09-23T08:35:12.278Z,32
2018-09-23T08:36:13.679Z,28
2018-09-23T08:37:15.096Z,24
2018-09-23T08:38:16.447Z,24
2018-09-23T08:39:17.843Z,28
2018-09-23T08:40:19.223Z,32
2018-09-23T08:41:20.608Z,28
2018-09-23T08:42:21.992Z,32
2018-09-23T08:43:23.401Z,32
2018-09-23T08:44:24.786Z,32
2018-09-23T08:45:26.192Z,28
2018-09-23T08:46:27.588Z,24
2018-09-23T08:47:29.755Z,28
2018-09-23T08:48:31.141Z,32
2018-09-23T08:49:32.552Z,32
2018-09-23T08:50:33.928Z,32
2018-09-23T08:51:35.317Z,36
2018-09-23T08:52:36.757Z,36
2018-09-23T08:53:38.129Z,40
2018-09-23T08:54:39.494Z,36
2018-09-23T08:55:40.887Z,40
2018-09-23T08:56:42.319Z,44
2018-09-23T08:57:43.770Z,44
2018-09-23T08:58:45.115Z,44
2018-09-23T08:59:46.495Z,44
2018-09-23T09:00:47.873Z,48
2018-09-23T09:01:49.261Z,44
2018-09-23T09:02:50.648Z,44
2018-09-23T09:03:52.050Z,48
2018-09-23T09:04:53.438Z,40
2018-09-23T09:05:54.838Z,44
2018-09-23T09:06:56.224Z,44
2018-09-23T09:07:57.606Z,44
2018-09-23T09:08:59.033Z,44
2018-09-23T09:10:00.428Z,48
2018-09-23T09:11:01.832Z,48
2018-09-23T09:12:03.234Z,52
2018-09-23T09:13:04.602Z,52
2018-09-23T09:14:05.993Z,56
2018-09-23T09:15:07.368Z,60
2018-09-23T09:16:08.746Z,64
2018-09-23T09:17:10.145Z,64
2018-09-23T09:18:11.605Z,52
2018-09-23T09:19:12.930Z,48
2018-09-23T09:20:14.310Z,48
2018-09-23T09:21:15.687Z,52
2018-09-23T09:22:17.069Z,60
2018-09-23T09:23:18.449Z,68
2018-09-23T09:24:19.875Z,72
2018-09-23T09:25:21.252Z,64
2018-09-23T09:26:22.658Z,52
2018-09-23T09:27:24.042Z,48
2018-09-23T09:28:25.421Z,48
2018-09-23T09:29:26.804Z,36
2018-09-23T09:30:28.214Z,32
2018-09-23T09:31:29.644Z,36
2018-09-23T09:32:31.021Z,40
2018-09-23T09:33:32.403Z,44
2018-09-23T09:34:33.792Z,48
2018-09-23T09:35:35.720Z,56
2018-09-23T09:36:37.105Z,60
2018-09-23T09:37:38.479Z,80
2018-09-23T09:38:39.847Z,92
2018-09-23T09:39:41.227Z,84
2018-09-23T09:40:42.603Z,84
2018-09-23T09:41:44.002Z,80
2018-09-23T09:42:45.379Z,88
2018-09-23T09:43:46.771Z,88
2018-09-23T09:44:48.161Z,88
2018-09-23T09:45:49.535Z,92
2018-09-23T09:46:50.915Z,96
2018-09-23T09:47:52.293Z,112
2018-09-23T09:48:53.714Z,120
2018-09-23T09:49:55.161Z,124
2018-09-23T09:50:56.552Z,124
2018-09-23T09:51:57.941Z,116
2018-09-23T09:52:59.331Z,112
2018-09-23T09:54:00.693Z,112
2018-09-23T09:55:02.082Z,108
2018-09-23T09:56:03.472Z,108
2018-09-23T09:57:04.862Z,100
2018-09-23T09:58:06.241Z,100
2018-09-23T09:59:07.636Z,92
2018-09-23T10:00:09.021Z,92
2018-09-23T10:01:10.416Z,84
2018-09-23T10:02:11.804Z,80
2018-09-23T10:03:13.185Z,72
2018-09-23T10:04:14.611Z,68
2018-09-23T10:05:15.958Z,68
2018-09-23T10:06:17.341Z,68
2018-09-23T10:07:18.741Z,72
2018-09-23T10:08:20.112Z,68
2018-09-23T10:09:21.523Z,68
2018-09-23T10:10:22.878Z,68
2018-09-23T10:11:24.295Z,76
2018-09-23T10:12:25.651Z,84
2018-09-23T10:13:27.076Z,92
2018-09-23T10:14:28.491Z,92
2018-09-23T10:15:29.861Z,96
2018-09-23T10:16:31.263Z,96
2018-09-23T10:17:32.619Z,92
2018-09-23T10:18:35.525Z,96
2018-09-23T10:19:36.890Z,92
2018-09-23T10:20:38.286Z,92
2018-09-23T10:21:39.665Z,92
2018-09-23T10:22:41.073Z,92
2018-09-23T10:23:43.218Z,92
2018-09-23T10:24:44.391Z,84
2018-09-23T10:25:45.770Z,88
2018-09-23T10:26:47.159Z,88
2018-09-23T10:27:48.559Z,88
2018-09-23T10:28:49.933Z,80
2018-09-23T10:29:51.354Z,84
2018-09-23T10:30:52.740Z,88
2018-09-23T10:31:54.104Z,84
2018-09-23T10:32:55.415Z,92
2018-09-23T10:33:56.814Z,96
2018-09-23T10:34:58.194Z,96
2018-09-23T10:35:59.597Z,96
2018-09-23T10:37:00.965Z,100
2018-09-23T10:38:02.349Z,112
2018-09-23T10:39:03.755Z,112
2018-09-23T10:40:05.141Z,120
2018-09-23T10:41:06.545Z,120
2018-09-23T10:42:07.947Z,120
2018-09-23T10:43:09.321Z,116
2018-09-23T10:44:10.699Z,120
2018-09-23T10:45:12.081Z,124
2018-09-23T10:46:13.463Z,120
2018-09-23T10:47:14.834Z,116
2018-09-23T10:48:16.220Z,108
2018-09-23T10:49:17.632Z,112
2018-09-23T10:50:18.995Z,116
2018-09-23T10:51:20.411Z,124
2018-09-23T10:52:21.784Z,132
2018-09-23T10:53:23.167Z,128
2018-09-23T10:54:24.552Z,128
2018-09-23T10:55:25.953Z,124
2018-09-23T10:56:27.334Z,120
2018-09-23T10:57:28.719Z,124
2018-09-23T10:58:30.115Z,136
2018-09-23T10:59:31.538Z,148
2018-09-23T11:00:32.886Z,168
2018-09-23T11:01:34.286Z,180
2018-09-23T11:02:35.676Z,180
2018-09-23T11:03:37.089Z,168
2018-09-23T11:04:38.428Z,152
2018-09-23T11:05:39.871Z,164
2018-09-23T11:06:41.273Z,168
2018-09-23T11:07:42.666Z,180
2018-09-23T11:08:44.068Z,272
2018-09-23T11:09:45.477Z,428
2018-09-23T11:10:46.805Z,336
2018-09-23T11:11:48.176Z,380
2018-09-23T11:12:49.558Z,232
2018-09-23T11:13:50.935Z,168
2018-09-23T11:14:52.375Z,168
2018-09-23T11:15:53.758Z,176
2018-09-23T11:16:55.159Z,172
2018-09-23T11:17:56.538Z,168
2018-09-23T11:18:57.931Z,168
2018-09-23T11:19:59.320Z,172
2018-09-23T11:21:00.711Z,168
2018-09-23T11:22:02.116Z,204
2018-09-23T11:23:03.610Z,248
2018-09-23T11:24:05.020Z,224
2018-09-23T11:25:06.419Z,196
2018-09-23T11:26:07.819Z,200
2018-09-23T11:27:09.200Z,216
2018-09-23T11:28:10.596Z,224
2018-09-23T11:29:11.967Z,252
2018-09-23T11:30:13.361Z,272
2018-09-23T11:31:14.737Z,216
2018-09-23T11:32:16.124Z,208
2018-09-23T11:33:17.507Z,204
2018-09-23T11:34:18.883Z,196
2018-09-23T11:35:20.275Z,220
2018-09-23T11:36:22.216Z,336
2018-09-23T11:37:26.918Z,520
2018-09-23T11:38:31.672Z,360
2018-09-23T11:39:32.193Z,296
2018-09-23T11:40:33.586Z,272
2018-09-23T11:41:34.986Z,272
2018-09-23T11:42:36.359Z,308
2018-09-23T11:43:37.732Z,356
2018-09-23T11:44:39.110Z,380
2018-09-23T11:45:41.056Z,452
2018-09-23T11:46:43.062Z,436
2018-09-23T11:47:44.461Z,448
2018-09-23T11:48:47.473Z,364
2018-09-23T11:49:48.858Z,292
2018-09-23T11:50:50.242Z,264
2018-09-23T11:51:51.638Z,272
2018-09-23T11:52:53.032Z,268
2018-09-23T11:53:54.398Z,252
2018-09-23T11:54:55.783Z,260
2018-09-23T11:55:57.166Z,264
2018-09-23T11:56:58.533Z,264
2018-09-23T11:57:59.912Z,224
2018-09-23T11:59:02.881Z,196
2018-09-23T12:00:06.726Z,184
2018-09-23T12:01:07.287Z,172
2018-09-23T12:02:08.693Z,156
2018-09-23T12:03:10.059Z,144
2018-09-23T12:04:11.437Z,160
2018-09-23T12:05:12.840Z,164
2018-09-23T12:06:14.219Z,164
2018-09-23T12:07:15.632Z,172
2018-09-23T12:08:18.309Z,188
2018-09-23T12:09:19.686Z,216
2018-09-23T12:10:21.149Z,208
2018-09-23T12:11:22.489Z,200
2018-09-23T12:12:23.883Z,192
2018-09-23T12:13:25.253Z,172
2018-09-23T12:14:27.924Z,144
2018-09-23T12:15:29.342Z,132
2018-09-23T12:16:30.706Z,124
2018-09-23T12:17:32.077Z,120
2018-09-23T12:18:33.456Z,112
2018-09-23T12:19:34.874Z,112
2018-09-23T12:20:36.258Z,108
2018-09-23T12:21:37.644Z,100
2018-09-23T12:22:39.017Z,104
2018-09-23T12:23:40.404Z,108
2018-09-23T12:24:41.785Z,108
2018-09-23T12:25:43.236Z,108
2018-09-23T12:26:44.549Z,108
2018-09-23T12:27:45.942Z,112
2018-09-23T12:28:47.332Z,116
2018-09-23T12:29:48.735Z,116
2018-09-23T12:30:50.120Z,124
2018-09-23T12:31:51.498Z,116
2018-09-23T12:32:52.880Z,104
2018-09-23T12:33:54.256Z,96
2018-09-23T12:34:55.643Z,88
2018-09-23T12:35:57.028Z,84
2018-09-23T12:36:58.403Z,80
2018-09-23T12:38:01.903Z,80
2018-09-23T12:39:03.256Z,76
2018-09-23T12:40:04.640Z,72
2018-09-23T12:41:06.013Z,76
2018-09-23T12:42:07.390Z,76
2018-09-23T12:43:08.770Z,76
2018-09-23T12:44:10.146Z,76
2018-09-23T12:45:11.531Z,84
2018-09-23T12:46:13.022Z,88
2018-09-23T12:47:14.246Z,88
2018-09-23T12:48:15.628Z,80
2018-09-23T12:49:17.656Z,56
2018-09-23T12:50:19.772Z,48
2018-09-23T12:51:21.145Z,44
2018-09-23T12:52:25.211Z,52
2018-09-23T12:53:26.586Z,56
2018-09-23T12:54:28.515Z,56
2018-09-23T12:55:31.171Z,60
2018-09-23T12:56:32.555Z,64
2018-09-23T12:57:33.933Z,76
2018-09-23T12:58:35.862Z,84
2018-09-23T12:59:37.248Z,88
2018-09-23T13:00:38.632Z,88
2018-09-23T13:01:40.012Z,84
2018-09-23T13:02:41.392Z,80
2018-09-23T13:03:42.774Z,84
2018-09-23T13:04:44.147Z,80
2018-09-23T13:05:45.547Z,84
2018-09-23T13:06:46.927Z,84
2018-09-23T13:07:49.852Z,80
2018-09-23T13:08:51.236Z,72
2018-09-23T13:09:57.122Z,64
2018-09-23T13:10:58.499Z,64
2018-09-23T13:11:59.875Z,76
2018-09-23T13:13:01.283Z,96
2018-09-23T13:14:02.639Z,96
2018-09-23T13:15:04.024Z,92
2018-09-23T13:16:05.408Z,84
2018-09-23T13:17:06.786Z,80
2018-09-23T13:18:08.264Z,88
2018-09-23T13:19:09.556Z,112
2018-09-23T13:20:10.933Z,136
2018-09-23T13:21:12.312Z,156
2018-09-23T13:22:13.746Z,140
2018-09-23T13:23:15.079Z,140
2018-09-23T13:24:16.459Z,116
2018-09-23T13:25:19.337Z,108
2018-09-23T13:26:20.720Z,104
2018-09-23T13:27:22.096Z,92
2018-09-23T13:28:23.473Z,88
2018-09-23T13:29:25.757Z,92
2018-09-23T13:30:27.163Z,92
2018-09-23T13:31:28.544Z,92
2018-09-23T13:32:29.927Z,88
2018-09-23T13:33:31.318Z,100
2018-09-23T13:34:32.722Z,88
2018-09-23T13:35:34.111Z,88
2018-09-23T13:36:35.508Z,92
2018-09-23T13:37:36.925Z,92
2018-09-23T13:38:39.100Z,80
2018-09-23T13:39:40.475Z,76
2018-09-23T13:40:41.859Z,76
2018-09-23T13:41:43.234Z,80
2018-09-23T13:42:44.629Z,64
2018-09-23T13:43:46.023Z,52
2018-09-23T13:44:47.405Z,48
2018-09-23T13:45:49.721Z,52
2018-09-23T13:46:51.113Z,48
2018-09-23T13:47:53.216Z,44
2018-09-23T13:48:57.568Z,48
2018-09-23T13:49:58.215Z,52
2018-09-23T13:50:59.592Z,48
2018-09-23T13:52:00.967Z,44
2018-09-23T13:53:02.359Z,40
2018-09-23T13:54:03.742Z,44
2018-09-23T13:55:05.128Z,44
2018-09-23T13:57:15.761Z,48
2018-09-23T13:58:17.149Z,48
2018-09-23T13:59:19.541Z,48
2018-09-23T14:00:20.372Z,40
2018-09-23T14:01:21.777Z,40
2018-09-23T14:02:23.243Z,36
2018-09-23T14:03:24.627Z,40
2018-09-23T14:04:26.039Z,44
2018-09-23T14:05:27.380Z,44
2018-09-23T14:06:28.785Z,44
2018-09-23T14:07:30.193Z,52
2018-09-23T14:08:31.573Z,48
2018-09-23T14:09:32.970Z,40
2018-09-23T14:10:34.354Z,36
2018-09-23T14:11:35.737Z,32
2018-09-23T14:12:37.110Z,32
2018-09-23T14:13:38.497Z,32
2018-09-23T14:14:39.889Z,32
2018-09-23T14:15:41.265Z,36
2018-09-23T14:16:43.231Z,40
2018-09-23T14:17:44.634Z,44
2018-09-23T14:18:46.030Z,56
2018-09-23T14:19:49.048Z,60
2018-09-23T14:20:50.456Z,52
2018-09-23T14:21:51.816Z,40
2018-09-23T14:22:53.200Z,44
2018-09-23T14:23:54.610Z,40
2018-09-23T14:24:55.990Z,36
2018-09-23T14:25:57.364Z,32
2018-09-23T14:26:58.763Z,32
2018-09-23T14:28:00.140Z,28
2018-09-23T14:29:01.584Z,36
2018-09-23T14:30:02.974Z,36
2018-09-23T14:31:04.410Z,36
2018-09-23T14:32:05.862Z,36
2018-09-23T14:33:07.246Z,40
2018-09-23T14:34:08.624Z,40
2018-09-23T14:35:10.602Z,44
2018-09-23T14:36:11.986Z,40
2018-09-23T14:37:13.379Z,40
2018-09-23T14:38:14.757Z,44
2018-09-23T14:39:16.163Z,44
2018-09-23T14:40:17.679Z,40
2018-09-23T14:41:19.073Z,36
2018-09-23T14:42:22.690Z,32
2018-09-23T14:43:23.318Z,28
2018-09-23T14:44:25.542Z,32
2018-09-23T14:45:26.933Z,28